Time;durP1;ratioP1;P1;durP2;ratioP2;P2;SDS_P1;SDS_P2;PMS_P1;PMS_P2;Temp;Humidity;BMP_temperature;BMP_pressure;BME280_temperature;BME280_humidity;BME280_pressure;Samples;Min_cycle;Max_cycle;Signal;HPM_P1;HPM_P2
2023/12/05 00:01:22;;;;;;;14.93;10.60;;;2.60;72.60;0.50;95366.00;;;;5049081;28;20439;-80
2023/12/05 00:03:50;;;;;;;14.90;10.20;;;2.60;72.70;0.50;95372.00;;;;5049428;28;20427;-80
2023/12/05 00:06:17;;;;;;;15.13;10.93;;;2.70;72.80;0.60;95371.00;;;;5049154;28;20713;-79
2023/12/05 00:08:44;;;;;;;13.67;9.80;;;2.60;72.60;0.50;95372.00;;;;5050638;28;20438;-81
2023/12/05 00:11:12;;;;;;;14.17;10.70;;;2.60;72.40;0.50;95377.00;;;;5050509;28;20462;-81
2023/12/05 00:13:42;;;;;;;14.37;10.37;;;2.60;72.30;0.50;95386.00;;;;5050399;28;20504;-81
2023/12/05 00:16:11;;;;;;;15.90;11.07;;;2.60;72.40;0.50;95377.00;;;;5051967;28;20432;-81
2023/12/05 00:18:38;;;;;;;15.83;10.83;;;2.60;72.60;0.50;95388.00;;;;5052061;28;20505;-81
2023/12/05 00:21:07;;;;;;;16.03;10.30;;;2.60;72.70;0.60;95380.00;;;;5049738;28;20463;-80
2023/12/05 00:23:34;;;;;;;14.50;10.17;;;2.60;72.60;0.60;95386.00;;;;5051044;28;20916;-80
2023/12/05 00:26:02;;;;;;;16.70;10.67;;;2.60;72.60;0.60;95392.00;;;;5050776;28;20431;-80
2023/12/05 00:28:29;;;;;;;12.33;9.50;;;2.60;72.40;0.60;95387.00;;;;5051297;28;20432;-81
2023/12/05 00:30:58;;;;;;;13.33;9.87;;;2.70;72.60;0.60;95402.00;;;;5051584;28;20494;-80
2023/12/05 00:33:25;;;;;;;15.47;10.73;;;2.70;72.60;0.70;95431.00;;;;5052902;28;20432;-80
2023/12/05 00:35:53;;;;;;;16.13;11.43;;;2.70;72.60;0.70;95440.00;;;;5052356;28;20420;-80
2023/12/05 00:38:22;;;;;;;17.03;10.93;;;2.70;72.60;0.70;95438.00;;;;5052976;28;21002;-80
2023/12/05 00:40:50;;;;;;;16.77;10.73;;;2.70;72.40;0.70;95454.00;;;;5053831;28;20470;-80
2023/12/05 00:43:18;;;;;;;15.97;11.67;;;2.70;72.40;0.80;95438.00;;;;5050291;28;20434;-80
2023/12/05 00:45:46;;;;;;;14.47;10.30;;;2.80;72.60;0.70;95423.00;;;;5054337;28;20490;-79
2023/12/05 00:48:16;;;;;;;12.70;9.43;;;2.80;72.50;0.70;95424.00;;;;5053847;28;20442;-80
2023/12/05 00:50:43;;;;;;;13.80;9.93;;;2.80;72.40;0.70;95425.00;;;;5037337;28;20456;-80
2023/12/05 00:53:10;;;;;;;16.20;10.63;;;2.70;72.40;0.70;95431.00;;;;5039580;28;20438;-80
2023/12/05 00:55:38;;;;;;;15.43;10.80;;;2.80;72.80;0.80;95430.00;;;;5039572;28;20471;-79
2023/12/05 00:58:05;;;;;;;15.97;10.47;;;2.80;72.70;0.80;95433.00;;;;5040324;28;20567;-80
2023/12/05 01:00:34;;;;;;;14.73;10.53;;;2.80;72.80;0.80;95444.00;;;;5041512;28;20530;-80
2023/12/05 01:03:01;;;;;;;13.20;9.73;;;2.90;73.00;0.90;95454.00;;;;5041069;28;20485;-80
2023/12/05 01:05:29;;;;;;;13.23;9.23;;;2.90;72.90;0.90;95468.00;;;;5042917;28;20456;-80
2023/12/05 01:07:57;;;;;;;12.57;9.57;;;2.90;73.10;0.90;95468.00;;;;5041526;28;20945;-80
2023/12/05 01:10:26;;;;;;;13.63;9.37;;;3.00;73.30;1.00;95478.00;;;;5043203;28;20480;-80
2023/12/05 01:12:53;;;;;;;15.93;11.13;;;3.00;73.30;1.00;95472.00;;;;5042932;28;20435;-80
2023/12/05 01:15:20;;;;;;;16.50;11.60;;;3.00;73.30;1.00;95472.00;;;;5031222;28;20455;-80
2023/12/05 01:17:47;;;;;;;15.77;10.60;;;3.00;73.20;1.10;95472.00;;;;5031897;28;21034;-80
2023/12/05 01:20:15;;;;;;;16.63;10.80;;;3.00;73.20;1.10;95480.00;;;;5036126;28;20452;-80
2023/12/05 01:22:44;;;;;;;15.87;10.83;;;3.10;73.30;1.10;95487.00;;;;5028776;28;20837;-80
2023/12/05 01:25:11;;;;;;;12.60;9.57;;;3.10;73.20;1.10;95501.00;;;;5045449;28;20456;-80
2023/12/05 01:27:40;;;;;;;13.80;9.90;;;3.10;73.30;1.20;95509.00;;;;5057940;28;20463;-80
2023/12/05 01:30:11;;;;;;;13.77;9.60;;;3.20;73.60;1.20;95505.00;;;;5059906;28;20476;-77
2023/12/05 01:32:39;;;;;;;13.60;10.23;;;3.20;73.60;1.20;95501.00;;;;5060080;28;20436;-78
2023/12/05 01:35:09;;;;;;;14.00;10.50;;;3.20;73.70;1.30;95494.00;;;;5060057;28;20438;-77
2023/12/05 01:37:37;;;;;;;13.63;10.07;;;3.30;73.50;1.30;95494.00;;;;5057458;28;20487;-76
2023/12/05 01:40:09;;;;;;;12.70;9.53;;;3.30;73.70;1.30;95498.00;;;;5059875;28;20459;-80
2023/12/05 01:42:38;;;;;;;13.20;10.37;;;3.30;73.80;1.40;95492.00;;;;5058403;28;20423;-78
2023/12/05 01:45:07;;;;;;;15.43;11.07;;;3.30;74.20;1.40;95488.00;;;;5037277;28;20439;-78
2023/12/05 01:47:36;;;;;;;15.47;10.27;;;3.40;74.50;1.40;95482.00;;;;5025655;28;20445;-79
2023/12/05 01:50:04;;;;;;;16.13;11.10;;;3.40;74.80;1.50;95475.00;;;;5038265;28;20455;-79
2023/12/05 01:52:32;;;;;;;12.10;9.27;;;3.50;75.00;1.60;95472.00;;;;5039892;28;20432;-79
2023/12/05 01:55:00;;;;;;;16.67;10.70;;;3.50;75.10;1.60;95467.00;;;;5040234;28;20285;-78
2023/12/05 01:57:30;;;;;;;13.87;11.13;;;3.50;75.20;1.70;95472.00;;;;5019771;28;20444;-78
2023/12/05 01:59:58;;;;;;;16.53;10.93;;;3.60;75.20;1.70;95465.00;;;;5039281;28;20644;-78
2023/12/05 02:02:27;;;;;;;13.73;10.80;;;3.60;75.20;1.70;95463.00;;;;5041769;28;20205;-79
2023/12/05 02:04:54;;;;;;;13.80;10.80;;;3.60;75.20;1.70;95464.00;;;;5014390;28;20244;-79
2023/12/05 02:07:21;;;;;;;13.40;10.10;;;3.70;75.10;1.80;95463.00;;;;5035518;28;20452;-78
2023/12/05 02:09:50;;;;;;;15.93;11.50;;;3.70;75.00;1.80;95460.00;;;;5034178;28;20506;-80
2023/12/05 02:12:17;;;;;;;13.40;10.70;;;3.70;75.20;1.80;95450.00;;;;5026442;28;20197;-79
2023/12/05 02:14:46;;;;;;;14.70;10.73;;;3.80;75.30;1.90;95443.00;;;;5034038;28;20798;-79
2023/12/05 02:17:24;;;;;;;14.33;10.53;;;3.80;75.20;1.90;95462.00;;;;5035353;28;20252;-80
2023/12/05 02:20:06;;;;;;;12.90;9.67;;;3.90;75.10;1.90;95467.00;;;;5036186;28;20526;-79
2023/12/05 02:23:21;;;;;;;16.23;11.30;;;3.80;75.10;1.90;95476.00;;;;5034845;28;20450;-79
2023/12/05 02:26:08;;;;;;;12.83;9.83;;;3.80;74.90;1.90;95484.00;;;;5017968;28;20202;-79
2023/12/05 02:28:38;;;;;;;13.77;10.83;;;3.90;75.00;2.00;95482.00;;;;5032455;28;20431;-79
2023/12/05 02:31:08;;;;;;;14.43;10.47;;;3.90;75.20;2.00;95490.00;;;;5035690;28;20471;-80
2023/12/05 02:33:36;;;;;;;13.10;10.37;;;3.90;75.20;2.00;95484.00;;;;5035620;28;20198;-79
2023/12/05 02:36:17;;;;;;;16.90;11.37;;;3.90;75.20;2.00;95477.00;;;;5035186;28;20197;-79
2023/12/05 02:38:58;;;;;;;15.30;11.27;;;4.00;75.40;2.10;95477.00;;;;5033899;28;20307;-79
2023/12/05 02:41:32;;;;;;;13.47;10.17;;;4.00;75.50;2.10;95458.00;;;;5028101;28;20235;-80
2023/12/05 02:44:09;;;;;;;15.87;11.07;;;4.00;75.60;2.10;95459.00;;;;5033139;28;20567;-79
2023/12/05 02:46:40;;;;;;;13.80;10.70;;;4.10;76.00;2.20;95449.00;;;;5032593;28;20195;-80
2023/12/05 02:49:08;;;;;;;13.67;10.47;;;4.10;76.20;2.30;95440.00;;;;5032357;28;20312;-79
2023/12/05 02:51:35;;;;;;;12.83;10.67;;;4.10;76.40;2.30;95437.00;;;;5031202;28;20219;-79
2023/12/05 02:54:06;;;;;;;15.53;10.53;;;4.20;76.70;2.40;95438.00;;;;5031632;28;20197;-79
2023/12/05 02:56:34;;;;;;;15.53;11.00;;;4.20;76.80;2.40;95434.00;;;;5028101;28;20292;-79
2023/12/05 02:59:03;;;;;;;12.97;9.93;;;4.30;76.80;2.50;95447.00;;;;5031610;28;20225;-78
2023/12/05 03:01:30;;;;;;;14.73;10.93;;;4.30;76.70;2.50;95447.00;;;;5033066;28;20304;-79
2023/12/05 03:03:57;;;;;;;15.47;10.90;;;4.40;77.00;2.60;95446.00;;;;5032474;28;20197;-79
2023/12/05 03:06:27;;;;;;;17.73;11.10;;;4.40;76.90;2.60;95435.00;;;;5034240;28;20289;-79
2023/12/05 03:08:54;;;;;;;15.13;11.87;;;4.50;76.80;2.70;95432.00;;;;5035353;28;20283;-80
2023/12/05 03:11:21;;;;;;;17.13;11.83;;;4.50;76.90;2.70;95428.00;;;;5035255;28;20276;-79
2023/12/05 03:13:48;;;;;;;14.20;11.13;;;4.50;76.80;2.70;95425.00;;;;5034427;28;20198;-79
2023/12/05 03:16:17;;;;;;;16.33;12.03;;;4.60;76.80;2.80;95433.00;;;;5033177;28;20205;-79
2023/12/05 03:18:45;;;;;;;16.10;11.90;;;4.60;76.80;2.80;95434.00;;;;5035556;28;20223;-79
2023/12/05 03:21:19;;;;;;;14.43;11.47;;;4.60;76.80;2.80;95418.00;;;;5034641;28;20221;-79
2023/12/05 03:23:46;;;;;;;14.60;11.07;;;4.60;76.60;2.80;95410.00;;;;5034019;28;20201;-79
2023/12/05 03:26:20;;;;;;;15.27;12.20;;;4.70;76.80;2.80;95412.00;;;;5032910;28;20228;-79
2023/12/05 03:28:51;;;;;;;15.43;11.67;;;4.70;76.70;2.80;95418.00;;;;5033631;28;20680;-79
2023/12/05 03:31:21;;;;;;;13.83;11.53;;;4.70;76.70;2.90;95444.00;;;;5025373;28;20586;-79
2023/12/05 03:33:51;;;;;;;14.97;11.60;;;4.70;76.70;2.90;95435.00;;;;5032077;28;20228;-79
2023/12/05 03:36:18;;;;;;;16.83;11.03;;;4.70;76.60;2.90;95464.00;;;;5022958;28;20275;-79
2023/12/05 03:38:46;;;;;;;15.70;11.53;;;4.80;77.20;2.90;95461.00;;;;5012909;28;20220;-79
2023/12/05 03:41:14;;;;;;;14.20;11.20;;;4.80;76.50;2.90;95452.00;;;;5028654;28;20210;-79
2023/12/05 03:43:42;;;;;;;15.87;12.27;;;4.80;76.50;3.00;95450.00;;;;5027893;28;20895;-80
2023/12/05 03:46:09;;;;;;;14.97;11.40;;;4.80;76.60;3.00;95441.00;;;;5030947;28;20228;-79
2023/12/05 03:48:40;;;;;;;15.27;11.40;;;4.80;76.50;3.00;95440.00;;;;5031605;28;20216;-80
2023/12/05 03:51:08;;;;;;;16.93;12.30;;;4.80;76.30;3.00;95437.00;;;;5031510;28;20221;-79
2023/12/05 03:53:36;;;;;;;15.23;11.87;;;4.80;76.40;3.00;95435.00;;;;5031599;28;20271;-80
2023/12/05 03:56:07;;;;;;;16.23;11.90;;;4.90;76.30;3.00;95439.00;;;;5030382;28;20262;-80
2023/12/05 03:58:34;;;;;;;16.67;12.50;;;4.80;76.20;3.00;95432.00;;;;5031587;28;20312;-83
2023/12/05 04:01:04;;;;;;;18.47;12.97;;;4.80;76.30;3.00;95438.00;;;;5022173;28;20233;-83
2023/12/05 04:03:34;;;;;;;15.37;12.50;;;4.80;76.30;3.00;95435.00;;;;5031792;28;20197;-83
2023/12/05 04:06:03;;;;;;;16.93;12.60;;;4.80;76.30;3.00;95433.00;;;;5033670;28;20208;-82
2023/12/05 04:08:32;;;;;;;18.93;12.93;;;4.80;76.30;3.00;95436.00;;;;5029174;28;20666;-83
2023/12/05 04:11:01;;;;;;;15.73;11.97;;;4.80;76.50;3.00;95443.00;;;;5032410;28;20225;-83
2023/12/05 04:13:29;;;;;;;13.83;10.70;;;4.80;76.60;3.00;95443.00;;;;5047029;28;20213;-79
2023/12/05 04:15:56;;;;;;;16.60;11.73;;;4.80;76.70;3.10;95446.00;;;;5054441;28;20224;-79
2023/12/05 04:18:23;;;;;;;15.43;11.30;;;4.90;76.90;3.00;95451.00;;;;5056691;28;20260;-79
2023/12/05 04:20:51;;;;;;;17.97;12.03;;;4.90;76.80;3.10;95438.00;;;;5056560;28;20438;-79
2023/12/05 04:23:20;;;;;;;16.97;11.33;;;4.90;76.90;3.10;95437.00;;;;5052474;28;20253;-79
2023/12/05 04:25:48;;;;;;;14.60;10.70;;;4.90;76.90;3.20;95445.00;;;;5047896;28;20199;-79
2023/12/05 04:28:15;;;;;;;16.93;11.93;;;4.90;77.00;3.20;95439.00;;;;5025473;28;20269;-80
2023/12/05 04:30:43;;;;;;;16.07;12.27;;;5.10;77.00;3.20;95451.00;;;;5034374;28;20229;-80
2023/12/05 04:33:12;;;;;;;15.87;11.23;;;5.00;77.00;3.20;95447.00;;;;5037188;28;20620;-80
2023/12/05 04:35:40;;;;;;;18.43;11.77;;;5.00;76.90;3.20;95444.00;;;;5035390;28;20238;-80
2023/12/05 04:38:07;;;;;;;15.83;12.30;;;5.10;77.00;3.30;95454.00;;;;5034351;28;20221;-80
2023/12/05 04:40:37;;;;;;;15.47;11.50;;;5.10;76.90;3.30;95451.00;;;;5036494;28;20225;-80
2023/12/05 04:43:05;;;;;;;15.07;11.57;;;5.10;76.70;3.30;95449.00;;;;5034255;28;20658;-81
2023/12/05 04:45:38;;;;;;;14.87;10.90;;;5.10;76.70;3.30;95458.00;;;;5032422;28;20199;-83
2023/12/05 04:48:05;;;;;;;14.07;10.37;;;5.10;76.60;3.30;95460.00;;;;5047665;28;20226;-80
2023/12/05 04:50:33;;;;;;;14.57;10.13;;;5.10;76.40;3.40;95464.00;;;;5052793;28;20304;-81
2023/12/05 04:53:02;;;;;;;11.60;9.53;;;5.20;76.50;3.40;95464.00;;;;5034686;28;20205;-82
2023/12/05 04:55:30;;;;;;;14.50;10.33;;;5.20;76.50;3.40;95459.00;;;;5018103;28;20237;-82
2023/12/05 04:57:58;;;;;;;14.73;11.17;;;5.20;77.30;3.40;95461.00;;;;5033752;28;20203;-81
2023/12/05 05:00:26;;;;;;;15.87;11.30;;;5.20;76.50;3.40;95458.00;;;;5033689;28;20272;-82
2023/12/05 05:02:53;;;;;;;13.90;10.17;;;5.20;76.40;3.40;95459.00;;;;5035232;28;20189;-82
2023/12/05 05:05:21;;;;;;;13.13;10.47;;;5.20;76.40;3.40;95451.00;;;;5035637;28;20208;-82
2023/12/05 05:07:48;;;;;;;14.10;10.40;;;5.20;76.60;3.40;95447.00;;;;5034486;28;20198;-82
2023/12/05 05:10:15;;;;;;;13.40;10.17;;;5.20;76.70;3.40;95438.00;;;;5010537;28;20225;-82
2023/12/05 05:12:43;;;;;;;12.67;10.13;;;5.20;76.70;3.40;95447.00;;;;5035004;28;20583;-82
2023/12/05 05:15:11;;;;;;;14.73;11.20;;;5.20;76.80;3.40;95446.00;;;;5028692;28;20200;-82
2023/12/05 05:17:39;;;;;;;14.47;10.13;;;5.20;77.50;3.40;95439.00;;;;5034827;28;20221;-82
2023/12/05 05:20:09;;;;;;;13.33;10.10;;;5.30;77.20;3.40;95431.00;;;;5035312;28;20604;-82
2023/12/05 05:22:36;;;;;;;13.50;10.07;;;5.20;76.70;3.40;95436.00;;;;5033504;28;20201;-82
2023/12/05 05:25:04;;;;;;;14.87;11.23;;;5.30;76.80;3.50;95437.00;;;;5034424;28;20221;-82
2023/12/05 05:27:31;;;;;;;15.73;11.47;;;5.30;76.70;3.50;95449.00;;;;5035560;28;20211;-82
2023/12/05 05:29:58;;;;;;;13.43;10.20;;;5.30;76.50;3.40;95458.00;;;;5035064;28;20209;-82
2023/12/05 05:32:27;;;;;;;17.30;11.30;;;5.30;76.50;3.40;95461.00;;;;5032203;28;20196;-82
2023/12/05 05:34:54;;;;;;;12.23;10.20;;;5.20;76.30;3.40;95470.00;;;;5033431;28;20204;-82
2023/12/05 05:37:21;;;;;;;13.70;10.23;;;5.30;76.30;3.40;95460.00;;;;5033673;28;20201;-82
2023/12/05 05:39:49;;;;;;;14.33;10.70;;;5.20;76.40;3.40;95464.00;;;;5032226;28;20217;-81
2023/12/05 05:42:16;;;;;;;12.87;9.47;;;5.20;76.30;3.40;95469.00;;;;5024993;28;20202;-82
2023/12/05 05:44:44;;;;;;;14.07;10.73;;;5.20;76.40;3.40;95465.00;;;;5028555;28;20658;-82
2023/12/05 05:47:11;;;;;;;13.60;10.23;;;5.20;76.40;3.30;95470.00;;;;5031510;28;20241;-82
2023/12/05 05:49:41;;;;;;;12.50;9.73;;;5.10;76.40;3.30;95466.00;;;;5032934;28;20224;-82
2023/12/05 05:52:09;;;;;;;12.90;10.03;;;5.20;76.40;3.30;95482.00;;;;5034335;28;20216;-82
2023/12/05 05:54:36;;;;;;;13.87;10.10;;;5.10;76.40;3.30;95471.00;;;;5034440;28;20269;-81
2023/12/05 05:57:04;;;;;;;14.23;11.10;;;5.10;76.40;3.20;95465.00;;;;5034259;28;20719;-82
2023/12/05 05:59:31;;;;;;;11.23;9.60;;;5.10;76.30;3.20;95467.00;;;;5014566;28;20217;-81
2023/12/05 06:01:58;;;;;;;11.57;9.60;;;5.00;76.90;3.20;95468.00;;;;5033480;28;20228;-81
2023/12/05 06:04:27;;;;;;;12.57;9.53;;;5.00;76.20;3.20;95467.00;;;;5035291;28;20646;-81
2023/12/05 06:06:56;;;;;;;12.17;9.23;;;5.00;76.20;3.10;95465.00;;;;5035130;28;20565;-81
2023/12/05 06:09:23;;;;;;;11.93;9.97;;;4.90;76.10;3.10;95476.00;;;;5013499;28;20604;-81
2023/12/05 06:11:50;;;;;;;13.27;10.23;;;4.90;76.80;3.10;95472.00;;;;5023936;28;20214;-81
2023/12/05 06:14:18;;;;;;;11.57;9.33;;;4.90;76.00;3.00;95469.00;;;;5025856;28;20212;-81
2023/12/05 06:16:45;;;;;;;13.97;10.60;;;4.90;76.10;3.00;95477.00;;;;5031981;28;20197;-81
2023/12/05 06:19:13;;;;;;;13.83;9.60;;;4.90;76.30;3.00;95464.00;;;;5030995;28;20217;-81
2023/12/05 06:21:40;;;;;;;13.73;10.40;;;4.80;76.40;3.00;95459.00;;;;5034004;28;20592;-81
2023/12/05 06:24:09;;;;;;;10.53;8.43;;;4.80;76.30;2.90;95479.00;;;;5030544;28;20316;-81
2023/12/05 06:26:36;;;;;;;16.60;9.30;;;4.80;76.10;2.90;95459.00;;;;5025112;28;20248;-81
2023/12/05 06:29:06;;;;;;;11.03;8.63;;;4.80;76.10;2.90;95459.00;;;;5029072;28;20221;-80
2023/12/05 06:31:33;;;;;;;13.47;9.90;;;4.80;76.10;2.90;95468.00;;;;5030638;28;20221;-81
2023/12/05 06:34:00;;;;;;;12.60;10.10;;;4.70;76.10;2.90;95469.00;;;;5029351;28;20208;-80
2023/12/05 06:36:28;;;;;;;12.30;9.20;;;4.70;77.00;2.90;95484.00;;;;5032587;28;20724;-80
2023/12/05 06:38:55;;;;;;;14.73;10.73;;;4.70;76.30;2.90;95479.00;;;;5036590;28;20288;-82
2023/12/05 06:41:23;;;;;;;12.63;10.00;;;4.70;76.50;2.90;95480.00;;;;5040437;28;20213;-83
2023/12/05 06:43:51;;;;;;;16.50;10.40;;;4.70;76.60;2.90;95480.00;;;;5045677;28;20241;-82
2023/12/05 06:46:18;;;;;;;13.23;9.03;;;4.70;76.60;2.90;95488.00;;;;5047156;28;20193;-82
2023/12/05 06:48:48;;;;;;;14.40;10.13;;;4.80;76.70;2.90;95494.00;;;;5056530;28;20201;-82
2023/12/05 06:51:19;;;;;;;13.63;9.73;;;4.80;77.50;3.00;95498.00;;;;5053794;28;20201;-81
2023/12/05 06:53:47;;;;;;;13.47;9.73;;;4.80;76.70;3.00;95494.00;;;;5046778;28;20186;-81
2023/12/05 06:56:16;;;;;;;13.23;10.37;;;4.80;76.80;3.00;95496.00;;;;5051732;28;20193;-82
2023/12/05 06:58:45;;;;;;;13.63;9.67;;;4.80;76.80;3.00;95496.00;;;;5030840;28;20257;-82
2023/12/05 07:01:12;;;;;;;12.43;9.37;;;4.90;76.60;3.10;95506.00;;;;5038566;28;20229;-81
2023/12/05 07:03:40;;;;;;;11.80;8.97;;;4.90;76.50;3.10;95505.00;;;;5037892;28;20640;-81
2023/12/05 07:06:09;;;;;;;10.73;8.73;;;5.00;76.70;3.10;95509.00;;;;5036543;28;20229;-82
2023/12/05 07:08:36;;;;;;;12.33;9.13;;;5.00;76.70;3.10;95495.00;;;;5036406;28;20223;-82
2023/12/05 07:11:04;;;;;;;13.17;9.50;;;5.00;76.80;3.20;95509.00;;;;5038241;28;20324;-81
2023/12/05 07:13:31;;;;;;;11.17;8.20;;;5.00;76.70;3.20;95510.00;;;;5034511;28;20201;-81
2023/12/05 07:16:00;;;;;;;11.90;8.87;;;5.10;76.60;3.20;95514.00;;;;5034863;28;20203;-81
2023/12/05 07:18:27;;;;;;;11.10;9.10;;;5.00;76.40;3.20;95515.00;;;;5036619;28;20613;-82
2023/12/05 07:20:55;;;;;;;12.23;8.83;;;5.00;76.40;3.20;95511.00;;;;5036206;28;20255;-82
2023/12/05 07:23:24;;;;;;;11.90;9.23;;;5.10;76.40;3.20;95515.00;;;;5037432;28;20708;-81
2023/12/05 07:25:53;;;;;;;12.37;8.83;;;5.10;76.20;3.20;95512.00;;;;5044251;28;20209;-83
2023/12/05 07:28:22;;;;;;;12.60;8.40;;;5.10;76.20;3.20;95520.00;;;;5035161;28;20320;-83
2023/12/05 07:30:51;;;;;;;13.33;9.80;;;5.10;76.10;3.20;95532.00;;;;5026852;28;20348;-83
2023/12/05 07:33:20;;;;;;;12.37;9.00;;;5.10;76.40;3.30;95533.00;;;;5023030;28;20237;-82
2023/12/05 07:35:48;;;;;;;11.17;8.50;;;5.10;76.40;3.30;95548.00;;;;5028223;28;20349;-82
2023/12/05 07:38:15;;;;;;;13.50;8.87;;;5.10;76.40;3.30;95546.00;;;;5024887;28;20292;-82
2023/12/05 07:40:43;;;;;;;13.00;9.10;;;5.10;76.60;3.30;95547.00;;;;5028989;28;20217;-82
2023/12/05 07:43:10;;;;;;;13.00;9.80;;;5.20;76.60;3.30;95540.00;;;;5021682;28;20591;-82
2023/12/05 07:45:37;;;;;;;14.60;9.67;;;5.40;76.80;3.40;95532.00;;;;5022974;28;20212;-82
2023/12/05 07:48:07;;;;;;;13.90;9.53;;;5.20;76.70;3.40;95534.00;;;;5024275;28;20212;-82
2023/12/05 07:50:35;;;;;;;12.70;9.20;;;5.20;76.60;3.50;95533.00;;;;5026521;28;20228;-83
2023/12/05 07:53:07;;;;;;;11.10;8.60;;;5.30;76.70;3.50;95530.00;;;;5028170;28;20198;-82
2023/12/05 07:55:38;;;;;;;13.00;9.03;;;5.30;76.70;3.50;95531.00;;;;5026377;28;20212;-83
2023/12/05 07:58:05;;;;;;;13.23;8.80;;;5.30;76.80;3.50;95524.00;;;;5027392;28;20677;-83
2023/12/05 08:00:34;;;;;;;11.50;9.00;;;5.40;76.80;3.60;95536.00;;;;5029947;28;20221;-83
2023/12/05 08:03:02;;;;;;;12.53;9.57;;;5.40;76.70;3.60;95523.00;;;;5031903;28;20258;-83
2023/12/05 08:05:30;;;;;;;13.10;8.97;;;5.40;76.70;3.60;95522.00;;;;5031413;28;20197;-83
2023/12/05 08:07:59;;;;;;;11.60;9.00;;;5.50;76.70;3.60;95530.00;;;;5030592;28;20297;-84
2023/12/05 08:10:26;;;;;;;14.57;9.53;;;5.50;76.60;3.70;95526.00;;;;5030229;28;20660;-84
2023/12/05 08:12:54;;;;;;;13.43;8.93;;;5.50;76.50;3.70;95540.00;;;;5025937;28;20197;-84
2023/12/05 08:15:21;;;;;;;14.03;9.20;;;5.50;76.70;3.70;95537.00;;;;5030027;28;20209;-82
2023/12/05 08:17:48;;;;;;;13.00;8.90;;;5.60;76.70;3.80;95542.00;;;;5026498;28;20210;-84
2023/12/05 08:20:16;;;;;;;11.63;8.63;;;5.60;77.30;3.80;95546.00;;;;5029384;28;20249;-84
2023/12/05 08:22:43;;;;;;;12.03;8.83;;;5.60;76.40;3.80;95539.00;;;;5028319;28;20213;-84
2023/12/05 08:25:12;;;;;;;12.30;8.97;;;5.60;77.20;3.80;95543.00;;;;5030200;28;20280;-83
2023/12/05 08:27:40;;;;;;;13.33;9.47;;;5.60;76.40;3.80;95523.00;;;;5026307;28;20201;-83
2023/12/05 08:30:08;;;;;;;11.63;8.93;;;5.70;76.30;3.80;95523.00;;;;5029421;28;20300;-85
2023/12/05 08:32:36;;;;;;;12.73;8.27;;;5.70;76.30;3.90;95520.00;;;;5028320;28;20201;-85
2023/12/05 08:35:03;;;;;;;12.97;9.33;;;5.70;76.40;3.90;95529.00;;;;5029317;28;20229;-83
2023/12/05 08:37:31;;;;;;;14.07;8.73;;;5.70;76.50;3.90;95527.00;;;;5032917;28;20205;-84
2023/12/05 08:39:58;;;;;;;12.87;9.17;;;5.70;76.30;3.90;95540.00;;;;5030022;28;20221;-84
2023/12/05 08:42:29;;;;;;;11.73;8.47;;;5.70;76.30;3.90;95547.00;;;;5027189;28;20682;-85
2023/12/05 08:44:57;;;;;;;12.70;9.50;;;5.70;76.00;3.80;95559.00;;;;5030136;28;20225;-84
2023/12/05 08:47:27;;;;;;;11.70;8.10;;;5.70;76.00;3.80;95545.00;;;;5030743;28;20197;-85
2023/12/05 08:50:08;;;;;;;12.40;9.30;;;5.70;76.20;3.80;95551.00;;;;5032364;28;20217;-84
2023/12/05 08:52:44;;;;;;;12.33;9.10;;;5.70;76.20;3.90;95560.00;;;;5031612;28;20190;-84
2023/12/05 08:55:11;;;;;;;13.03;9.27;;;5.50;75.90;3.90;95563.00;;;;5031803;28;21304;-85
2023/12/05 08:57:40;;;;;;;11.63;9.13;;;5.70;76.20;3.90;95562.00;;;;5027043;28;20193;-85
2023/12/05 09:00:09;;;;;;;12.77;9.23;;;5.70;76.40;3.90;95563.00;;;;5031349;28;20233;-84
2023/12/05 09:02:37;;;;;;;13.13;9.20;;;5.80;76.30;3.90;95570.00;;;;5028343;28;20269;-85
2023/12/05 09:05:05;;;;;;;11.97;8.80;;;5.80;76.30;3.90;95575.00;;;;5028278;28;20247;-85
2023/12/05 09:07:33;;;;;;;13.03;9.77;;;5.80;76.20;3.90;95570.00;;;;5027187;28;20202;-85
2023/12/05 09:10:00;;;;;;;14.30;9.63;;;5.80;76.20;3.90;95576.00;;;;5028762;28;20201;-85
2023/12/05 09:12:28;;;;;;;13.67;9.37;;;5.70;76.20;3.90;95572.00;;;;5025235;28;20280;-85
2023/12/05 09:15:06;;;;;;;13.23;10.23;;;5.80;76.10;3.90;95579.00;;;;5032422;28;20215;-84
2023/12/05 09:17:34;;;;;;;13.87;10.10;;;5.70;75.60;3.80;95571.00;;;;5037876;28;20202;-83
2023/12/05 09:20:02;;;;;;;13.23;9.73;;;5.70;75.90;3.80;95570.00;;;;5036419;28;20224;-85
2023/12/05 09:22:29;;;;;;;11.87;9.33;;;5.70;75.90;3.80;95574.00;;;;5051914;28;20201;-84
2023/12/05 09:24:56;;;;;;;11.83;9.90;;;5.70;76.10;3.80;95566.00;;;;5053831;28;20186;-84
2023/12/05 09:27:24;;;;;;;12.50;9.60;;;5.70;76.10;3.80;95567.00;;;;5051482;28;20197;-84
2023/12/05 09:29:51;;;;;;;13.63;10.03;;;5.70;76.10;3.80;95566.00;;;;5053030;28;20197;-85
2023/12/05 09:32:20;;;;;;;12.53;9.90;;;5.70;76.40;3.80;95561.00;;;;5051077;28;20277;-85
2023/12/05 09:34:47;;;;;;;13.63;9.67;;;5.70;76.40;3.80;95568.00;;;;5047777;28;20194;-85
2023/12/05 09:37:16;;;;;;;13.30;9.87;;;5.60;76.40;3.80;95570.00;;;;5028940;28;20263;-85
2023/12/05 09:39:52;;;;;;;13.57;10.40;;;5.60;76.40;3.80;95567.00;;;;5031078;28;20197;-84
2023/12/05 09:42:21;;;;;;;11.57;9.57;;;5.60;76.40;3.80;95573.00;;;;5027707;28;20206;-85
2023/12/05 09:44:50;;;;;;;11.57;9.13;;;5.70;76.50;3.90;95566.00;;;;5023644;28;21031;-86
2023/12/05 09:47:26;;;;;;;11.70;9.30;;;5.70;76.80;3.90;95568.00;;;;5027287;28;20208;-84
2023/12/05 09:49:54;;;;;;;12.43;10.30;;;5.70;76.70;3.90;95567.00;;;;5024844;28;20216;-86
2023/12/05 09:52:27;;;;;;;12.53;9.50;;;5.80;76.90;4.00;95562.00;;;;5025917;28;20205;-85
2023/12/05 09:54:55;;;;;;;12.97;10.37;;;5.80;77.00;4.10;95559.00;;;;5025729;28;20205;-85
2023/12/05 09:57:23;;;;;;;12.37;10.30;;;5.90;77.70;4.30;95568.00;;;;5026806;28;20292;-85
2023/12/05 09:59:50;;;;;;;13.93;10.53;;;6.10;78.50;4.50;95563.00;;;;5022399;28;20277;-86
2023/12/05 10:02:24;;;;;;;13.33;10.13;;;6.10;79.70;4.70;95569.00;;;;5031064;28;20240;-85
2023/12/05 10:05:00;;;;;;;13.47;10.53;;;6.30;78.90;4.80;95557.00;;;;5039415;28;20288;-84
2023/12/05 10:07:28;;;;;;;14.13;10.23;;;6.50;78.40;4.90;95562.00;;;;5031764;28;20197;-84
2023/12/05 10:09:57;;;;;;;11.83;9.77;;;6.60;78.00;4.90;95561.00;;;;5038064;28;20194;-84
2023/12/05 10:12:24;;;;;;;11.87;9.73;;;6.70;77.50;5.00;95562.00;;;;5041368;28;20213;-84
2023/12/05 10:14:53;;;;;;;12.10;10.03;;;6.80;77.10;5.00;95555.00;;;;5043178;28;20225;-84
2023/12/05 10:17:21;;;;;;;14.47;10.70;;;6.80;76.90;5.00;95564.00;;;;5034157;28;20221;-84
2023/12/05 10:19:48;;;;;;;13.40;10.50;;;6.90;76.40;5.00;95562.00;;;;5027483;28;20205;-85
2023/12/05 10:22:18;;;;;;;12.43;10.27;;;6.90;76.20;5.00;95562.00;;;;5030153;28;20217;-83
2023/12/05 10:24:46;;;;;;;11.03;8.97;;;6.90;76.00;5.00;95554.00;;;;5033884;28;20220;-84
2023/12/05 10:27:14;;;;;;;14.27;10.40;;;6.90;76.00;5.00;95549.00;;;;5029084;28;20197;-84
2023/12/05 10:29:43;;;;;;;12.67;10.43;;;6.90;76.00;5.00;95561.00;;;;5030849;28;20769;-84
2023/12/05 10:32:14;;;;;;;13.47;9.90;;;6.80;75.90;4.90;95554.00;;;;5015294;28;20212;-84
2023/12/05 10:34:49;;;;;;;12.53;10.43;;;6.80;75.70;4.90;95557.00;;;;5023755;28;20194;-84
2023/12/05 10:37:21;;;;;;;11.83;9.87;;;6.80;75.60;4.90;95560.00;;;;5030052;28;21668;-84
2023/12/05 10:39:50;;;;;;;11.73;9.47;;;6.70;75.60;4.80;95558.00;;;;5033002;28;20205;-83
2023/12/05 10:42:27;;;;;;;12.17;9.83;;;6.70;75.80;4.80;95556.00;;;;5030770;28;20287;-83
2023/12/05 10:44:55;;;;;;;12.40;9.93;;;6.70;75.80;4.90;95552.00;;;;5033030;28;21426;-83
2023/12/05 10:47:26;;;;;;;15.33;10.30;;;6.70;76.10;4.90;95553.00;;;;5031349;28;20205;-84
2023/12/05 10:49:54;;;;;;;13.73;9.60;;;6.60;76.10;4.90;95551.00;;;;5032821;28;20193;-83
2023/12/05 10:52:23;;;;;;;11.10;9.10;;;6.70;76.30;4.80;95555.00;;;;5028666;28;20400;-83
2023/12/05 10:54:56;;;;;;;12.93;10.30;;;6.70;76.30;4.80;95566.00;;;;5027108;28;20292;-83
2023/12/05 10:57:35;;;;;;;13.03;10.17;;;6.60;76.20;4.80;95568.00;;;;5025713;28;20213;-83
2023/12/05 11:00:05;;;;;;;13.23;10.13;;;6.60;76.10;4.80;95564.00;;;;5029188;28;20201;-83
2023/12/05 11:02:33;;;;;;;11.73;9.10;;;6.60;76.30;4.80;95551.00;;;;5018076;28;20222;-82
2023/12/05 11:05:05;;;;;;;12.57;9.17;;;6.60;76.60;4.80;95566.00;;;;5030914;28;20658;-83